createdAt,value
2018-12-06T00:01:22.777Z,21.07
2018-12-06T00:03:50.269Z,20.17
2018-12-06T00:06:17.769Z,23.10
2018-12-06T00:08:45.312Z,14.43
2018-12-06T00:11:12.822Z,19.70
2018-12-06T00:13:40.363Z,22.67
2018-12-06T00:16:07.863Z,19.30
2018-12-06T00:18:35.361Z,19.37
2018-12-06T00:21:02.857Z,17.13
2018-12-06T00:23:30.352Z,21.40
2018-12-06T00:25:57.861Z,27.03
2018-12-06T00:28:25.364Z,21.73
2018-12-06T00:30:52.893Z,20.17
2018-12-06T00:33:20.384Z,19.57
2018-12-06T00:35:47.896Z,17.33
2018-12-06T00:38:15.809Z,16.10
2018-12-06T00:40:43.338Z,16.20
2018-12-06T00:43:10.867Z,13.17
2018-12-06T00:45:38.385Z,18.93
2018-12-06T00:48:05.885Z,18.27
2018-12-06T00:50:33.386Z,19.53
2018-12-06T00:53:01.009Z,16.87
2018-12-06T00:55:28.504Z,18.87
2018-12-06T00:57:55.992Z,20.70
2018-12-06T01:00:23.497Z,23.30
2018-12-06T01:02:51.029Z,19.87
2018-12-06T01:05:18.542Z,19.47
2018-12-06T01:07:46.067Z,19.60
2018-12-06T01:10:13.589Z,14.90
2018-12-06T01:12:41.085Z,19.93
2018-12-06T01:15:08.613Z,17.70
2018-12-06T01:17:36.125Z,16.30
2018-12-06T01:20:03.929Z,17.23
2018-12-06T01:22:31.432Z,22.30
2018-12-06T01:24:59.151Z,15.83
2018-12-06T01:27:26.693Z,17.40
2018-12-06T01:29:54.203Z,19.10
2018-12-06T01:32:21.696Z,23.03
2018-12-06T01:34:49.229Z,17.50
2018-12-06T01:37:16.733Z,21.63
2018-12-06T01:39:44.232Z,23.90
2018-12-06T01:42:11.744Z,15.67
2018-12-06T01:44:39.243Z,18.57
2018-12-06T01:47:06.757Z,16.07
2018-12-06T01:49:34.250Z,15.07
2018-12-06T01:52:01.755Z,20.17
2018-12-06T01:54:29.259Z,13.60
2018-12-06T01:56:56.757Z,15.93
2018-12-06T01:59:24.278Z,16.07
2018-12-06T02:01:51.790Z,16.60
2018-12-06T02:04:19.285Z,18.23
2018-12-06T02:06:46.791Z,12.87
2018-12-06T02:09:14.295Z,15.67
2018-12-06T02:11:41.821Z,16.47
2018-12-06T02:14:09.327Z,14.87
2018-12-06T02:16:36.825Z,15.60
2018-12-06T02:19:04.321Z,14.00
2018-12-06T02:21:31.816Z,16.00
2018-12-06T02:23:59.329Z,22.00
2018-12-06T02:26:26.825Z,17.37
2018-12-06T02:28:54.318Z,16.47
2018-12-06T02:31:21.826Z,17.27
2018-12-06T02:33:49.333Z,17.93
2018-12-06T02:36:16.858Z,17.97
2018-12-06T02:38:44.359Z,18.07
2018-12-06T02:41:11.863Z,14.20
2018-12-06T02:43:39.358Z,17.33
2018-12-06T02:46:06.875Z,29.90
2018-12-06T02:48:34.376Z,17.20
2018-12-06T02:51:01.885Z,16.50
2018-12-06T02:53:29.393Z,22.30
2018-12-06T02:55:56.897Z,15.77
2018-12-06T02:58:24.382Z,22.90
2018-12-06T03:00:51.881Z,15.93
2018-12-06T03:03:20.085Z,12.87
2018-12-06T03:05:47.605Z,18.33
2018-12-06T03:08:15.113Z,17.63
2018-12-06T03:10:42.618Z,19.10
2018-12-06T03:13:10.128Z,18.80
2018-12-06T03:15:37.631Z,17.93
2018-12-06T03:18:05.142Z,30.53
2018-12-06T03:20:32.662Z,24.80
2018-12-06T03:23:00.170Z,25.43
2018-12-06T03:25:27.661Z,27.07
2018-12-06T03:27:55.177Z,18.70
2018-12-06T03:30:22.694Z,18.97
2018-12-06T03:32:50.317Z,16.57
2018-12-06T03:35:17.836Z,26.03
2018-12-06T03:37:45.343Z,23.20
2018-12-06T03:40:12.842Z,25.93
2018-12-06T03:42:40.347Z,26.03
2018-12-06T03:45:07.885Z,19.57
2018-12-06T03:47:35.381Z,22.23
2018-12-06T03:50:03.162Z,21.70
2018-12-06T03:52:30.667Z,20.83
2018-12-06T03:54:58.169Z,25.93
2018-12-06T03:57:25.656Z,26.47
2018-12-06T03:59:53.167Z,23.87
2018-12-06T04:02:20.689Z,16.20
2018-12-06T04:04:48.186Z,20.33
2018-12-06T04:07:15.682Z,17.77
2018-12-06T04:09:43.186Z,17.47
2018-12-06T04:12:10.690Z,22.03
2018-12-06T04:14:38.199Z,19.70
2018-12-06T04:17:05.696Z,20.20
2018-12-06T04:19:33.198Z,20.73
2018-12-06T04:22:00.713Z,16.80
2018-12-06T04:24:29.185Z,19.87
2018-12-06T04:26:56.950Z,21.73
2018-12-06T04:29:24.485Z,21.23
2018-12-06T04:31:52.009Z,21.90
2018-12-06T04:34:19.534Z,29.23
2018-12-06T04:36:47.176Z,22.20
2018-12-06T04:39:14.723Z,22.03
2018-12-06T04:41:42.241Z,17.27
2018-12-06T04:44:09.770Z,26.03
2018-12-06T04:46:37.417Z,26.77
2018-12-06T04:49:04.972Z,24.13
2018-12-06T04:51:32.506Z,28.30
2018-12-06T04:54:00.012Z,20.40
2018-12-06T04:56:27.659Z,25.17
2018-12-06T04:58:55.209Z,21.93
2018-12-06T05:01:22.754Z,21.80
2018-12-06T05:03:50.270Z,22.07
2018-12-06T05:06:17.775Z,23.33
2018-12-06T05:08:45.275Z,32.40
2018-12-06T05:11:12.801Z,27.97
2018-12-06T05:13:40.310Z,26.10
2018-12-06T05:16:07.806Z,30.10
2018-12-06T05:18:35.305Z,28.37
2018-12-06T05:21:02.825Z,22.77
2018-12-06T05:23:30.312Z,34.77
2018-12-06T05:25:57.833Z,30.30
2018-12-06T05:28:25.328Z,27.80
2018-12-06T05:30:52.839Z,27.37
2018-12-06T05:33:20.352Z,30.50
2018-12-06T05:35:47.848Z,27.60
2018-12-06T05:38:15.373Z,25.93
2018-12-06T05:40:42.882Z,21.77
2018-12-06T05:43:10.386Z,26.00
2018-12-06T05:45:37.882Z,27.47
2018-12-06T05:48:05.395Z,25.83
2018-12-06T05:50:32.925Z,25.20
2018-12-06T05:53:00.443Z,31.40
2018-12-06T05:55:27.947Z,34.50
2018-12-06T05:57:55.440Z,37.90
2018-12-06T06:00:22.941Z,28.93
2018-12-06T06:02:50.464Z,26.60
2018-12-06T06:05:17.977Z,34.43
2018-12-06T06:07:45.486Z,33.50
2018-12-06T06:10:12.989Z,26.33
2018-12-06T06:12:40.482Z,29.00
2018-12-06T06:15:07.998Z,29.27
2018-12-06T06:17:35.488Z,27.83
2018-12-06T06:20:03.007Z,26.47
2018-12-06T06:22:30.520Z,22.77
2018-12-06T06:24:58.026Z,28.77
2018-12-06T06:27:26.362Z,23.97
2018-12-06T06:29:53.993Z,28.53
2018-12-06T06:32:21.494Z,18.00
2018-12-06T06:34:49.000Z,21.00
2018-12-06T06:37:16.503Z,20.47
2018-12-06T06:39:44.037Z,22.53
2018-12-06T06:42:11.534Z,21.37
2018-12-06T06:44:39.038Z,21.90
2018-12-06T06:47:06.549Z,27.37
2018-12-06T06:49:34.040Z,25.37
2018-12-06T06:52:01.566Z,35.13
2018-12-06T06:54:29.069Z,27.40
2018-12-06T06:56:56.573Z,25.70
2018-12-06T06:59:26.218Z,29.20
2018-12-06T07:01:53.640Z,28.30
2018-12-06T07:04:21.151Z,28.83
2018-12-06T07:06:48.648Z,26.80
2018-12-06T07:09:16.168Z,28.73
2018-12-06T07:11:43.666Z,26.93
2018-12-06T07:14:11.282Z,29.43
2018-12-06T07:16:39.233Z,29.33
2018-12-06T07:19:06.752Z,29.10
2018-12-06T07:21:34.285Z,28.30
2018-12-06T07:24:01.809Z,36.87
2018-12-06T07:26:29.323Z,25.93
2018-12-06T07:28:56.940Z,28.40
2018-12-06T07:31:24.443Z,34.63
2018-12-06T07:33:51.950Z,29.20
2018-12-06T07:36:19.453Z,29.77
2018-12-06T07:38:46.947Z,24.40
2018-12-06T07:41:14.508Z,29.07
2018-12-06T07:43:42.088Z,37.33
2018-12-06T07:46:10.172Z,31.73
2018-12-06T07:48:39.421Z,27.90
2018-12-06T07:51:07.188Z,29.03
2018-12-06T07:53:34.757Z,29.10
2018-12-06T07:56:02.310Z,33.33
2018-12-06T07:58:29.866Z,27.03
2018-12-06T08:00:57.448Z,27.43
2018-12-06T08:03:24.984Z,27.10
2018-12-06T08:05:52.582Z,33.83
2018-12-06T08:08:20.562Z,25.67
2018-12-06T08:10:48.173Z,29.57
2018-12-06T08:13:15.742Z,30.97
2018-12-06T08:15:43.312Z,29.23
2018-12-06T08:18:10.923Z,37.33
2018-12-06T08:20:38.453Z,31.00
2018-12-06T08:23:05.961Z,37.30
2018-12-06T08:25:33.484Z,24.40
2018-12-06T08:28:01.030Z,26.60
2018-12-06T08:30:28.596Z,26.30
2018-12-06T08:32:56.193Z,26.20
2018-12-06T08:35:23.778Z,26.73
2018-12-06T08:37:51.337Z,22.50
2018-12-06T08:40:18.930Z,22.13
2018-12-06T08:42:46.481Z,23.73
2018-12-06T08:45:14.058Z,19.40
2018-12-06T08:47:41.633Z,25.30
2018-12-06T08:50:09.153Z,26.87
2018-12-06T08:52:36.742Z,24.03
2018-12-06T08:55:04.285Z,26.20
2018-12-06T08:57:31.873Z,20.00
2018-12-06T08:59:59.436Z,28.07
2018-12-06T09:02:27.024Z,24.47
2018-12-06T09:04:54.561Z,24.63
2018-12-06T09:07:22.192Z,27.63
2018-12-06T09:09:49.774Z,27.37
2018-12-06T09:12:17.327Z,30.20
2018-12-06T09:14:45.921Z,32.97
2018-12-06T09:17:16.779Z,25.77
2018-12-06T09:19:44.351Z,24.27
2018-12-06T09:22:11.891Z,27.73
2018-12-06T09:24:39.442Z,21.43
2018-12-06T09:27:07.039Z,24.23
2018-12-06T09:29:34.597Z,24.90
2018-12-06T09:32:02.157Z,24.67
2018-12-06T09:34:29.723Z,23.27
2018-12-06T09:36:57.285Z,27.67
2018-12-06T09:39:24.871Z,24.97
2018-12-06T09:41:52.450Z,27.60
2018-12-06T09:44:20.000Z,28.27
2018-12-06T09:46:47.617Z,28.93
2018-12-06T09:49:15.185Z,29.67
2018-12-06T09:51:42.746Z,31.33
2018-12-06T09:54:10.296Z,25.93
2018-12-06T09:56:37.876Z,29.37
2018-12-06T09:59:05.441Z,29.03
2018-12-06T10:01:33.009Z,26.80
2018-12-06T10:04:00.569Z,27.27
2018-12-06T10:06:28.140Z,25.97
2018-12-06T10:08:55.717Z,27.60
2018-12-06T10:11:23.250Z,29.53
2018-12-06T10:13:50.815Z,25.90
2018-12-06T10:16:18.370Z,25.63
2018-12-06T10:18:45.948Z,25.73
2018-12-06T10:21:13.500Z,29.93
2018-12-06T10:23:41.194Z,29.37
2018-12-06T10:26:08.771Z,29.67
2018-12-06T10:28:36.329Z,32.00
2018-12-06T10:31:03.929Z,28.27
2018-12-06T10:33:31.538Z,26.37
2018-12-06T10:35:59.098Z,33.50
2018-12-06T10:38:26.680Z,27.03
2018-12-06T10:40:54.263Z,30.60
2018-12-06T10:43:21.822Z,31.27
2018-12-06T10:45:49.386Z,30.10
2018-12-06T10:48:16.944Z,24.90
2018-12-06T10:50:44.506Z,29.87
2018-12-06T10:53:12.105Z,27.60
2018-12-06T10:55:39.669Z,29.23
2018-12-06T10:58:07.227Z,27.97
2018-12-06T11:00:40.341Z,31.87
2018-12-06T11:03:19.807Z,29.97
2018-12-06T11:05:47.395Z,33.87
2018-12-06T11:08:48.222Z,31.80
2018-12-06T11:11:15.797Z,23.90
2018-12-06T11:13:43.338Z,26.70
2018-12-06T11:16:10.917Z,27.27
2018-12-06T11:18:38.477Z,28.13
2018-12-06T11:21:06.018Z,27.57
2018-12-06T11:23:33.586Z,23.07
2018-12-06T11:26:01.133Z,28.73
2018-12-06T11:28:28.682Z,28.93
2018-12-06T11:30:56.262Z,32.07
2018-12-06T11:33:23.835Z,26.27
2018-12-06T11:35:51.381Z,26.67
2018-12-06T11:38:18.947Z,30.03
2018-12-06T11:40:46.484Z,23.77
2018-12-06T11:43:14.053Z,24.37
2018-12-06T11:45:41.621Z,24.23
2018-12-06T11:48:09.202Z,24.83
2018-12-06T11:50:36.755Z,26.30
2018-12-06T11:53:04.297Z,28.43
2018-12-06T11:55:32.005Z,27.47
2018-12-06T11:57:59.693Z,24.33
2018-12-06T12:00:27.278Z,23.43
2018-12-06T12:02:54.837Z,26.17
2018-12-06T12:05:22.406Z,23.07
2018-12-06T12:07:49.929Z,25.93
2018-12-06T12:10:17.516Z,25.37
2018-12-06T12:12:45.035Z,38.60
2018-12-06T12:15:12.611Z,24.23
2018-12-06T12:17:40.197Z,25.83
2018-12-06T12:20:07.773Z,27.13
2018-12-06T12:22:35.685Z,21.80
2018-12-06T12:25:03.230Z,29.90
2018-12-06T12:27:30.991Z,50.23
2018-12-06T12:29:58.586Z,27.43
2018-12-06T12:32:26.236Z,30.83
2018-12-06T12:34:53.761Z,29.50
2018-12-06T12:37:21.310Z,25.37
2018-12-06T12:39:48.840Z,28.10
2018-12-06T12:42:16.362Z,26.73
2018-12-06T12:44:43.908Z,25.77
2018-12-06T12:47:11.450Z,25.20
2018-12-06T12:49:39.001Z,27.53
2018-12-06T12:52:06.552Z,29.57
2018-12-06T12:54:34.074Z,27.23
2018-12-06T12:57:01.637Z,25.90
2018-12-06T12:59:29.232Z,30.47
2018-12-06T13:01:56.782Z,26.37
2018-12-06T13:04:24.310Z,25.67
2018-12-06T13:06:51.843Z,28.93
2018-12-06T13:09:19.393Z,28.50
2018-12-06T13:11:46.936Z,26.53
2018-12-06T13:14:14.480Z,28.67
2018-12-06T13:16:42.065Z,27.17
2018-12-06T13:19:09.625Z,26.20
2018-12-06T13:21:37.161Z,30.60
2018-12-06T13:24:04.690Z,28.07
2018-12-06T13:26:32.246Z,27.63
2018-12-06T13:28:59.830Z,27.57
2018-12-06T13:31:27.358Z,37.07
2018-12-06T13:33:54.896Z,57.47
2018-12-06T13:36:22.500Z,51.97
2018-12-06T13:38:50.197Z,31.57
2018-12-06T13:41:17.919Z,32.87
2018-12-06T13:43:45.510Z,39.17
2018-12-06T13:46:13.217Z,47.07
2018-12-06T13:48:40.762Z,45.90
2018-12-06T13:51:08.518Z,36.63
2018-12-06T13:53:36.083Z,36.03
2018-12-06T13:56:03.633Z,37.70
2018-12-06T13:58:31.292Z,34.43
2018-12-06T14:00:59.147Z,31.80
2018-12-06T14:03:26.921Z,31.43
2018-12-06T14:05:54.565Z,32.80
2018-12-06T14:08:22.190Z,42.20
2018-12-06T14:10:49.845Z,31.70
2018-12-06T14:13:23.624Z,31.03
2018-12-06T14:15:47.127Z,33.80
2018-12-06T14:18:14.833Z,31.13
2018-12-06T14:20:42.500Z,28.37
2018-12-06T14:23:10.049Z,31.40
2018-12-06T14:25:37.604Z,36.60
2018-12-06T14:28:05.170Z,31.77
2018-12-06T14:30:33.790Z,29.67
2018-12-06T14:33:01.443Z,31.03
2018-12-06T14:35:30.079Z,27.23
2018-12-06T14:37:57.694Z,33.93
2018-12-06T14:40:25.626Z,29.27
2018-12-06T14:42:53.399Z,29.47
2018-12-06T14:45:20.953Z,27.07
2018-12-06T14:47:48.511Z,34.03
2018-12-06T14:50:16.171Z,35.30
2018-12-06T14:52:43.841Z,34.17
2018-12-06T14:55:11.429Z,34.67
2018-12-06T14:57:39.112Z,37.73
2018-12-06T15:00:07.784Z,51.70
2018-12-06T15:02:35.319Z,48.30
2018-12-06T15:05:02.928Z,49.10
2018-12-06T15:07:30.557Z,40.77
2018-12-06T15:09:58.211Z,36.93
2018-12-06T15:12:25.825Z,34.73
2018-12-06T15:14:53.375Z,36.63
2018-12-06T15:17:20.950Z,34.27
2018-12-06T15:19:48.534Z,32.90
2018-12-06T15:22:16.084Z,34.40
2018-12-06T15:24:43.608Z,38.20
2018-12-06T15:27:11.205Z,37.03
2018-12-06T15:29:38.757Z,37.90
2018-12-06T15:32:06.297Z,34.50
2018-12-06T15:34:33.887Z,35.67
2018-12-06T15:37:01.438Z,33.57
2018-12-06T15:39:28.996Z,35.30
2018-12-06T15:41:56.527Z,34.13
2018-12-06T15:44:24.119Z,33.50
2018-12-06T15:46:51.658Z,37.33
2018-12-06T15:49:19.234Z,36.53
2018-12-06T15:51:46.908Z,38.13
2018-12-06T15:54:14.470Z,36.83
2018-12-06T15:56:42.031Z,40.77
2018-12-06T15:59:09.593Z,36.03
2018-12-06T16:01:37.144Z,41.43
2018-12-06T16:04:04.704Z,44.70
2018-12-06T16:06:32.246Z,38.40
2018-12-06T16:08:59.781Z,40.40
2018-12-06T16:11:27.315Z,41.33
2018-12-06T16:13:54.916Z,45.73
2018-12-06T16:16:22.467Z,45.80
2018-12-06T16:18:50.046Z,45.73
2018-12-06T16:21:17.622Z,46.67
2018-12-06T16:23:45.182Z,44.87
2018-12-06T16:26:12.785Z,41.77
2018-12-06T16:28:40.321Z,44.93
2018-12-06T16:31:07.842Z,42.60
2018-12-06T16:33:35.381Z,40.90
2018-12-06T16:36:02.921Z,50.20
2018-12-06T16:38:30.446Z,53.87
2018-12-06T16:40:58.012Z,52.40
2018-12-06T16:43:25.583Z,58.47
2018-12-06T16:45:53.161Z,56.77
2018-12-06T16:48:20.716Z,65.20
2018-12-06T16:50:48.281Z,70.33
2018-12-06T16:53:15.914Z,58.00
2018-12-06T16:55:43.461Z,62.47
2018-12-06T16:58:11.042Z,63.77
2018-12-06T17:00:38.627Z,58.67
2018-12-06T17:03:06.291Z,57.53
2018-12-06T17:05:33.851Z,62.90
2018-12-06T17:08:01.401Z,59.93
2018-12-06T17:10:28.963Z,53.87
2018-12-06T17:12:56.555Z,50.47
2018-12-06T17:15:24.144Z,52.60
2018-12-06T17:17:51.706Z,49.67
2018-12-06T17:20:19.294Z,46.10
2018-12-06T17:22:46.900Z,41.97
2018-12-06T17:25:14.488Z,43.33
2018-12-06T17:27:42.037Z,47.17
2018-12-06T17:30:09.845Z,43.87
2018-12-06T17:32:37.583Z,40.60
2018-12-06T17:35:05.476Z,40.47
2018-12-06T17:37:33.021Z,42.77
2018-12-06T17:40:00.567Z,37.83
2018-12-06T17:42:28.144Z,41.07
2018-12-06T17:44:55.704Z,33.80
2018-12-06T17:47:23.235Z,33.00
2018-12-06T17:49:50.796Z,30.57
2018-12-06T17:52:18.363Z,31.77
2018-12-06T17:54:45.919Z,28.97
2018-12-06T17:57:13.474Z,29.60
2018-12-06T17:59:41.019Z,26.90
2018-12-06T18:02:08.552Z,27.10
2018-12-06T18:04:36.124Z,32.13
2018-12-06T18:07:03.726Z,30.20
2018-12-06T18:09:31.210Z,30.90
2018-12-06T18:11:58.761Z,30.30
2018-12-06T18:14:26.293Z,27.97
2018-12-06T18:16:53.896Z,32.57
2018-12-06T18:19:21.430Z,34.90
2018-12-06T18:21:49.045Z,31.93
2018-12-06T18:24:18.716Z,29.07
2018-12-06T18:26:46.248Z,29.37
2018-12-06T18:29:13.819Z,25.03
2018-12-06T18:31:41.364Z,26.13
2018-12-06T18:34:08.887Z,24.70
2018-12-06T18:36:36.471Z,26.87
2018-12-06T18:39:06.574Z,23.40
2018-12-06T18:41:34.157Z,23.47
2018-12-06T18:44:01.739Z,29.07
2018-12-06T18:46:29.355Z,25.07
2018-12-06T18:48:56.925Z,24.63
2018-12-06T18:51:24.453Z,24.03
2018-12-06T18:53:52.097Z,23.90
2018-12-06T18:56:19.732Z,26.70
2018-12-06T18:58:47.300Z,21.40
2018-12-06T19:01:14.950Z,21.33
2018-12-06T19:03:42.504Z,22.00
2018-12-06T19:06:10.083Z,20.57
2018-12-06T19:08:37.639Z,21.40
2018-12-06T19:11:05.187Z,22.53
2018-12-06T19:13:32.747Z,24.67
2018-12-06T19:16:00.322Z,23.03
2018-12-06T19:18:27.815Z,21.50
2018-12-06T19:20:55.345Z,19.80
2018-12-06T19:23:22.908Z,21.63
2018-12-06T19:25:50.493Z,23.60
2018-12-06T19:28:18.062Z,24.10
2018-12-06T19:30:46.620Z,26.77
2018-12-06T19:33:14.169Z,28.63
2018-12-06T19:35:41.755Z,32.60
2018-12-06T19:38:09.310Z,31.73
2018-12-06T19:40:36.853Z,26.93
2018-12-06T19:43:04.350Z,30.10
2018-12-06T19:45:31.905Z,33.83
2018-12-06T19:47:59.391Z,30.37
2018-12-06T19:50:26.887Z,28.07
2018-12-06T19:52:54.383Z,25.00
2018-12-06T19:55:21.887Z,24.47
2018-12-06T19:57:49.433Z,27.50
2018-12-06T20:00:16.979Z,22.67
2018-12-06T20:02:44.487Z,27.13
2018-12-06T20:05:11.980Z,26.73
2018-12-06T20:07:39.521Z,26.17
2018-12-06T20:10:07.652Z,24.47
2018-12-06T20:12:35.220Z,26.27
2018-12-06T20:15:02.799Z,26.90
2018-12-06T20:17:30.297Z,27.23
2018-12-06T20:19:57.817Z,25.03
2018-12-06T20:22:25.359Z,23.07
2018-12-06T20:24:52.870Z,23.07
2018-12-06T20:27:20.425Z,23.43
2018-12-06T20:29:47.986Z,21.60
2018-12-06T20:32:15.504Z,22.70
2018-12-06T20:34:43.026Z,22.67
2018-12-06T20:37:10.586Z,23.30
2018-12-06T20:39:38.153Z,22.50
2018-12-06T20:42:05.719Z,21.07
2018-12-06T20:44:33.277Z,21.13
2018-12-06T20:47:00.803Z,22.37
2018-12-06T20:49:28.357Z,21.27
2018-12-06T20:51:55.907Z,23.63
2018-12-06T20:54:23.477Z,21.00
2018-12-06T20:56:51.052Z,19.17
2018-12-06T20:59:18.624Z,22.33
2018-12-06T21:01:46.208Z,20.77
2018-12-06T21:04:13.791Z,19.70
2018-12-06T21:06:41.346Z,19.30
2018-12-06T21:09:08.894Z,20.00
2018-12-06T21:11:36.443Z,20.30
2018-12-06T21:14:04.001Z,17.33
2018-12-06T21:16:31.563Z,20.47
2018-12-06T21:18:59.130Z,19.00
2018-12-06T21:21:26.696Z,17.80
2018-12-06T21:23:54.257Z,17.03
2018-12-06T21:26:21.818Z,16.80
2018-12-06T21:28:49.343Z,18.40
2018-12-06T21:31:16.885Z,19.17
2018-12-06T21:33:44.430Z,17.67
2018-12-06T21:36:11.954Z,18.70
2018-12-06T21:38:39.462Z,17.03
2018-12-06T21:41:07.031Z,17.83
2018-12-06T21:43:34.601Z,16.67
2018-12-06T21:46:02.201Z,16.67
2018-12-06T21:48:29.702Z,15.40
2018-12-06T21:50:57.285Z,16.53
2018-12-06T21:53:24.809Z,15.77
2018-12-06T21:55:52.348Z,16.50
2018-12-06T21:58:19.899Z,16.53
2018-12-06T22:00:47.450Z,16.97
2018-12-06T22:03:14.972Z,14.70
2018-12-06T22:05:42.498Z,18.17
2018-12-06T22:08:10.049Z,16.83
2018-12-06T22:10:37.701Z,15.47
2018-12-06T22:13:05.283Z,19.87
2018-12-06T22:15:32.868Z,17.83
2018-12-06T22:18:00.376Z,17.40
2018-12-06T22:20:27.918Z,17.43
2018-12-06T22:22:55.448Z,22.87
2018-12-06T22:25:22.987Z,16.17
2018-12-06T22:27:50.538Z,16.13
2018-12-06T22:30:18.074Z,16.77
2018-12-06T22:32:45.670Z,15.47
2018-12-06T22:35:13.283Z,18.50
2018-12-06T22:37:40.828Z,17.57
2018-12-06T22:40:08.376Z,16.37
2018-12-06T22:42:35.951Z,18.37
2018-12-06T22:45:25.281Z,18.27
2018-12-06T22:47:52.828Z,20.13
2018-12-06T22:50:20.362Z,17.90
2018-12-06T22:52:47.913Z,18.23
2018-12-06T22:55:15.475Z,17.47
2018-12-06T22:57:43.041Z,20.13
2018-12-06T23:00:10.695Z,17.20
2018-12-06T23:02:38.261Z,18.60
2018-12-06T23:05:05.813Z,19.27
2018-12-06T23:07:33.374Z,18.50
2018-12-06T23:10:00.924Z,17.70
2018-12-06T23:12:28.462Z,17.07
2018-12-06T23:14:56.001Z,18.63
2018-12-06T23:17:23.558Z,17.90
2018-12-06T23:19:51.107Z,18.67
2018-12-06T23:22:18.672Z,17.03
2018-12-06T23:24:46.215Z,16.37
2018-12-06T23:27:13.804Z,17.17
2018-12-06T23:29:41.349Z,16.67
2018-12-06T23:32:08.902Z,16.13
2018-12-06T23:34:36.574Z,17.23
2018-12-06T23:37:04.123Z,16.40
2018-12-06T23:39:31.695Z,16.97
2018-12-06T23:41:59.219Z,18.67
2018-12-06T23:44:26.754Z,15.83
2018-12-06T23:46:54.355Z,15.60
2018-12-06T23:49:21.931Z,15.87
2018-12-06T23:51:49.492Z,16.20
2018-12-06T23:54:17.062Z,15.93
2018-12-06T23:56:44.635Z,15.70
2018-12-06T23:59:12.180Z,15.90
